sensor_id;sensor_type;location;lat;lon;timestamp;P1;durP1;ratioP1;P2;durP2;ratioP2
8871;SDS011;4472;52.092;9.820;2022-08-01T00:02:38;11.03;;;9.17;;
8871;SDS011;4472;52.092;9.820;2022-08-01T00:05:26;10.07;;;7.73;;
8871;SDS011;4472;52.092;9.820;2022-08-01T00:08:13;11.67;;;8.33;;
8871;SDS011;4472;52.092;9.820;2022-08-01T00:11:00;7.40;;;5.53;;
8871;SDS011;4472;52.092;9.820;2022-08-01T00:13:48;7.30;;;6.60;;
8871;SDS011;4472;52.092;9.820;2022-08-01T00:16:36;6.30;;;5.70;;
8871;SDS011;4472;52.092;9.820;2022-08-01T00:19:24;7.03;;;6.33;;
8871;SDS011;4472;52.092;9.820;2022-08-01T00:22:11;6.57;;;5.37;;
8871;SDS011;4472;52.092;9.820;2022-08-01T00:24:58;8.00;;;5.33;;
8871;SDS011;4472;52.092;9.820;2022-08-01T00:27:45;5.97;;;5.37;;
8871;SDS011;4472;52.092;9.820;2022-08-01T00:30:32;5.10;;;4.60;;
8871;SDS011;4472;52.092;9.820;2022-08-01T00:33:21;6.57;;;4.50;;
8871;SDS011;4472;52.092;9.820;2022-08-01T00:36:08;4.57;;;3.97;;
8871;SDS011;4472;52.092;9.820;2022-08-01T00:38:55;5.00;;;4.10;;
8871;SDS011;4472;52.092;9.820;2022-08-01T00:41:43;6.20;;;4.00;;
8871;SDS011;4472;52.092;9.820;2022-08-01T00:44:30;4.47;;;4.00;;
8871;SDS011;4472;52.092;9.820;2022-08-01T00:47:17;4.33;;;4.00;;
8871;SDS011;4472;52.092;9.820;2022-08-01T00:50:06;4.87;;;4.47;;
8871;SDS011;4472;52.092;9.820;2022-08-01T00:52:55;6.03;;;4.60;;
8871;SDS011;4472;52.092;9.820;2022-08-01T00:55:44;5.33;;;4.83;;
8871;SDS011;4472;52.092;9.820;2022-08-01T00:58:31;5.63;;;5.03;;
8871;SDS011;4472;52.092;9.820;2022-08-01T01:01:19;9.77;;;5.90;;
8871;SDS011;4472;52.092;9.820;2022-08-01T01:04:07;6.30;;;4.70;;
8871;SDS011;4472;52.092;9.820;2022-08-01T01:06:57;9.40;;;6.10;;
8871;SDS011;4472;52.092;9.820;2022-08-01T01:09:50;7.80;;;5.37;;
8871;SDS011;4472;52.092;9.820;2022-08-01T01:12:47;5.50;;;4.97;;
8871;SDS011;4472;52.092;9.820;2022-08-01T01:15:41;9.60;;;5.90;;
8871;SDS011;4472;52.092;9.820;2022-08-01T01:18:33;10.53;;;6.07;;
8871;SDS011;4472;52.092;9.820;2022-08-01T01:21:35;10.30;;;6.50;;
8871;SDS011;4472;52.092;9.820;2022-08-01T01:24:36;6.73;;;5.60;;
8871;SDS011;4472;52.092;9.820;2022-08-01T01:27:28;8.30;;;6.40;;
8871;SDS011;4472;52.092;9.820;2022-08-01T01:30:33;7.83;;;6.50;;
8871;SDS011;4472;52.092;9.820;2022-08-01T01:33:23;11.47;;;7.03;;
8871;SDS011;4472;52.092;9.820;2022-08-01T01:36:13;7.83;;;6.97;;
8871;SDS011;4472;52.092;9.820;2022-08-01T01:39:03;9.97;;;7.73;;
8871;SDS011;4472;52.092;9.820;2022-08-01T01:41:52;12.43;;;7.27;;
8871;SDS011;4472;52.092;9.820;2022-08-01T01:44:41;12.53;;;7.37;;
8871;SDS011;4472;52.092;9.820;2022-08-01T01:47:32;9.83;;;7.53;;
8871;SDS011;4472;52.092;9.820;2022-08-01T01:50:20;9.80;;;7.67;;
8871;SDS011;4472;52.092;9.820;2022-08-01T01:53:08;11.53;;;8.50;;
8871;SDS011;4472;52.092;9.820;2022-08-01T01:55:58;8.47;;;7.10;;
8871;SDS011;4472;52.092;9.820;2022-08-01T01:58:48;10.43;;;6.80;;
8871;SDS011;4472;52.092;9.820;2022-08-01T02:01:36;9.13;;;5.93;;
8871;SDS011;4472;52.092;9.820;2022-08-01T02:04:26;7.73;;;5.97;;
8871;SDS011;4472;52.092;9.820;2022-08-01T02:07:16;9.43;;;5.70;;
8871;SDS011;4472;52.092;9.820;2022-08-01T02:10:07;7.10;;;5.90;;
8871;SDS011;4472;52.092;9.820;2022-08-01T02:12:56;8.00;;;5.67;;
8871;SDS011;4472;52.092;9.820;2022-08-01T02:15:45;7.60;;;6.07;;
8871;SDS011;4472;52.092;9.820;2022-08-01T02:18:32;7.33;;;5.80;;
8871;SDS011;4472;52.092;9.820;2022-08-01T02:21:23;9.27;;;6.40;;
8871;SDS011;4472;52.092;9.820;2022-08-01T02:24:14;7.70;;;6.10;;
8871;SDS011;4472;52.092;9.820;2022-08-01T02:27:07;8.90;;;6.70;;
8871;SDS011;4472;52.092;9.820;2022-08-01T02:29:58;9.67;;;6.33;;
8871;SDS011;4472;52.092;9.820;2022-08-01T02:32:48;11.27;;;6.57;;
8871;SDS011;4472;52.092;9.820;2022-08-01T02:35:38;8.90;;;6.40;;
8871;SDS011;4472;52.092;9.820;2022-08-01T02:38:31;7.50;;;5.70;;
8871;SDS011;4472;52.092;9.820;2022-08-01T02:41:21;5.93;;;5.40;;
8871;SDS011;4472;52.092;9.820;2022-08-01T02:44:18;6.57;;;5.20;;
8871;SDS011;4472;52.092;9.820;2022-08-01T02:47:10;5.73;;;5.23;;
8871;SDS011;4472;52.092;9.820;2022-08-01T02:49:58;6.13;;;5.53;;
8871;SDS011;4472;52.092;9.820;2022-08-01T02:52:48;9.00;;;5.67;;
8871;SDS011;4472;52.092;9.820;2022-08-01T02:55:40;9.03;;;5.77;;
8871;SDS011;4472;52.092;9.820;2022-08-01T02:58:30;5.80;;;5.30;;
8871;SDS011;4472;52.092;9.820;2022-08-01T03:01:19;8.03;;;6.17;;
8871;SDS011;4472;52.092;9.820;2022-08-01T03:04:08;8.03;;;6.90;;
8871;SDS011;4472;52.092;9.820;2022-08-01T03:06:56;10.27;;;6.60;;
8871;SDS011;4472;52.092;9.820;2022-08-01T03:09:45;7.57;;;6.50;;
8871;SDS011;4472;52.092;9.820;2022-08-01T03:12:34;8.30;;;7.40;;
8871;SDS011;4472;52.092;9.820;2022-08-01T03:15:23;9.30;;;7.03;;
8871;SDS011;4472;52.092;9.820;2022-08-01T03:18:12;8.63;;;7.07;;
8871;SDS011;4472;52.092;9.820;2022-08-01T03:21:02;9.10;;;7.03;;
8871;SDS011;4472;52.092;9.820;2022-08-01T03:23:50;9.47;;;7.03;;
8871;SDS011;4472;52.092;9.820;2022-08-01T03:26:42;10.37;;;6.83;;
8871;SDS011;4472;52.092;9.820;2022-08-01T03:29:32;12.20;;;7.90;;
8871;SDS011;4472;52.092;9.820;2022-08-01T03:32:20;9.50;;;6.77;;
8871;SDS011;4472;52.092;9.820;2022-08-01T03:35:08;7.73;;;6.97;;
8871;SDS011;4472;52.092;9.820;2022-08-01T03:37:56;7.83;;;6.30;;
8871;SDS011;4472;52.092;9.820;2022-08-01T03:40:47;7.93;;;7.13;;
8871;SDS011;4472;52.092;9.820;2022-08-01T03:43:38;7.07;;;6.40;;
8871;SDS011;4472;52.092;9.820;2022-08-01T03:46:32;10.50;;;7.20;;
8871;SDS011;4472;52.092;9.820;2022-08-01T03:49:23;8.87;;;6.93;;
8871;SDS011;4472;52.092;9.820;2022-08-01T03:52:16;9.40;;;6.30;;
8871;SDS011;4472;52.092;9.820;2022-08-01T03:55:04;8.30;;;5.80;;
8871;SDS011;4472;52.092;9.820;2022-08-01T03:57:53;9.73;;;5.90;;
8871;SDS011;4472;52.092;9.820;2022-08-01T04:00:41;7.63;;;5.93;;
8871;SDS011;4472;52.092;9.820;2022-08-01T04:03:30;6.23;;;5.57;;
8871;SDS011;4472;52.092;9.820;2022-08-01T04:06:20;8.00;;;5.67;;
8871;SDS011;4472;52.092;9.820;2022-08-01T04:09:07;6.37;;;4.93;;
8871;SDS011;4472;52.092;9.820;2022-08-01T04:11:55;6.73;;;5.50;;
8871;SDS011;4472;52.092;9.820;2022-08-01T04:14:42;7.80;;;5.30;;
8871;SDS011;4472;52.092;9.820;2022-08-01T04:17:29;5.47;;;4.53;;
8871;SDS011;4472;52.092;9.820;2022-08-01T04:20:18;11.13;;;5.07;;
8871;SDS011;4472;52.092;9.820;2022-08-01T04:23:05;5.10;;;4.50;;
8871;SDS011;4472;52.092;9.820;2022-08-01T04:25:53;4.70;;;4.17;;
8871;SDS011;4472;52.092;9.820;2022-08-01T04:28:41;7.07;;;4.73;;
8871;SDS011;4472;52.092;9.820;2022-08-01T04:31:31;4.83;;;4.43;;
8871;SDS011;4472;52.092;9.820;2022-08-01T04:34:20;6.20;;;4.20;;
8871;SDS011;4472;52.092;9.820;2022-08-01T04:37:11;6.37;;;4.00;;
8871;SDS011;4472;52.092;9.820;2022-08-01T04:40:01;4.30;;;3.70;;
8871;SDS011;4472;52.092;9.820;2022-08-01T04:42:51;3.77;;;3.50;;
8871;SDS011;4472;52.092;9.820;2022-08-01T04:45:38;3.60;;;3.30;;
8871;SDS011;4472;52.092;9.820;2022-08-01T04:48:26;3.70;;;3.40;;
8871;SDS011;4472;52.092;9.820;2022-08-01T04:51:15;6.27;;;3.83;;
8871;SDS011;4472;52.092;9.820;2022-08-01T04:54:04;3.60;;;3.30;;
8871;SDS011;4472;52.092;9.820;2022-08-01T04:56:52;5.87;;;3.50;;
8871;SDS011;4472;52.092;9.820;2022-08-01T04:59:41;4.03;;;3.63;;
8871;SDS011;4472;52.092;9.820;2022-08-01T05:02:31;4.13;;;3.77;;
8871;SDS011;4472;52.092;9.820;2022-08-01T05:05:19;3.83;;;3.53;;
8871;SDS011;4472;52.092;9.820;2022-08-01T05:08:07;4.57;;;4.00;;
8871;SDS011;4472;52.092;9.820;2022-08-01T05:10:55;6.23;;;3.93;;
8871;SDS011;4472;52.092;9.820;2022-08-01T05:13:42;4.70;;;4.00;;
8871;SDS011;4472;52.092;9.820;2022-08-01T05:16:30;4.33;;;3.93;;
8871;SDS011;4472;52.092;9.820;2022-08-01T05:19:19;6.93;;;3.83;;
8871;SDS011;4472;52.092;9.820;2022-08-01T05:22:07;5.57;;;4.37;;
8871;SDS011;4472;52.092;9.820;2022-08-01T05:24:55;5.13;;;4.33;;
8871;SDS011;4472;52.092;9.820;2022-08-01T05:27:44;4.40;;;4.00;;
8871;SDS011;4472;52.092;9.820;2022-08-01T05:30:31;5.37;;;4.83;;
8871;SDS011;4472;52.092;9.820;2022-08-01T05:33:18;5.47;;;4.53;;
8871;SDS011;4472;52.092;9.820;2022-08-01T05:36:06;5.20;;;4.80;;
8871;SDS011;4472;52.092;9.820;2022-08-01T05:38:53;5.57;;;4.63;;
8871;SDS011;4472;52.092;9.820;2022-08-01T05:41:41;4.67;;;4.13;;
8871;SDS011;4472;52.092;9.820;2022-08-01T05:44:30;5.53;;;5.00;;
8871;SDS011;4472;52.092;9.820;2022-08-01T05:47:17;7.77;;;5.33;;
8871;SDS011;4472;52.092;9.820;2022-08-01T05:50:05;6.70;;;5.30;;
8871;SDS011;4472;52.092;9.820;2022-08-01T05:52:53;8.00;;;6.10;;
8871;SDS011;4472;52.092;9.820;2022-08-01T05:55:40;7.83;;;6.03;;
8871;SDS011;4472;52.092;9.820;2022-08-01T05:58:27;6.83;;;6.23;;
8871;SDS011;4472;52.092;9.820;2022-08-01T06:01:16;8.67;;;6.50;;
8871;SDS011;4472;52.092;9.820;2022-08-01T06:04:03;7.00;;;5.73;;
8871;SDS011;4472;52.092;9.820;2022-08-01T06:06:50;7.40;;;5.83;;
8871;SDS011;4472;52.092;9.820;2022-08-01T06:09:38;6.03;;;5.43;;
8871;SDS011;4472;52.092;9.820;2022-08-01T06:12:25;5.60;;;5.20;;
8871;SDS011;4472;52.092;9.820;2022-08-01T06:15:12;5.60;;;5.07;;
8871;SDS011;4472;52.092;9.820;2022-08-01T06:18:00;8.13;;;5.20;;
8871;SDS011;4472;52.092;9.820;2022-08-01T06:20:49;5.40;;;4.90;;
8871;SDS011;4472;52.092;9.820;2022-08-01T06:23:36;5.77;;;5.00;;
8871;SDS011;4472;52.092;9.820;2022-08-01T06:26:23;5.20;;;4.70;;
8871;SDS011;4472;52.092;9.820;2022-08-01T06:29:10;5.47;;;4.50;;
8871;SDS011;4472;52.092;9.820;2022-08-01T06:31:58;4.50;;;4.10;;
8871;SDS011;4472;52.092;9.820;2022-08-01T06:34:46;4.50;;;4.10;;
8871;SDS011;4472;52.092;9.820;2022-08-01T06:37:34;3.97;;;3.67;;
8871;SDS011;4472;52.092;9.820;2022-08-01T06:40:21;3.50;;;3.20;;
8871;SDS011;4472;52.092;9.820;2022-08-01T06:43:08;4.00;;;3.00;;
8871;SDS011;4472;52.092;9.820;2022-08-01T06:45:57;3.10;;;2.90;;
8871;SDS011;4472;52.092;9.820;2022-08-01T06:48:44;3.00;;;2.70;;
8871;SDS011;4472;52.092;9.820;2022-08-01T06:51:32;3.87;;;3.10;;
8871;SDS011;4472;52.092;9.820;2022-08-01T06:54:19;3.43;;;3.13;;
8871;SDS011;4472;52.092;9.820;2022-08-01T06:57:07;3.37;;;2.93;;
8871;SDS011;4472;52.092;9.820;2022-08-01T06:59:54;3.90;;;2.97;;
8871;SDS011;4472;52.092;9.820;2022-08-01T07:02:42;4.00;;;2.93;;
8871;SDS011;4472;52.092;9.820;2022-08-01T07:05:29;3.10;;;2.90;;
8871;SDS011;4472;52.092;9.820;2022-08-01T07:08:18;3.13;;;2.80;;
8871;SDS011;4472;52.092;9.820;2022-08-01T07:11:05;3.00;;;2.80;;
8871;SDS011;4472;52.092;9.820;2022-08-01T07:13:52;3.50;;;3.20;;
8871;SDS011;4472;52.092;9.820;2022-08-01T07:16:39;4.13;;;2.60;;
8871;SDS011;4472;52.092;9.820;2022-08-01T07:19:27;3.30;;;3.00;;
8871;SDS011;4472;52.092;9.820;2022-08-01T07:22:14;5.37;;;3.00;;
8871;SDS011;4472;52.092;9.820;2022-08-01T07:25:04;3.87;;;2.70;;
8871;SDS011;4472;52.092;9.820;2022-08-01T07:27:52;3.17;;;2.73;;
8871;SDS011;4472;52.092;9.820;2022-08-01T07:30:39;3.57;;;2.97;;
8871;SDS011;4472;52.092;9.820;2022-08-01T07:33:27;2.97;;;2.73;;
8871;SDS011;4472;52.092;9.820;2022-08-01T07:36:14;4.27;;;2.90;;
8871;SDS011;4472;52.092;9.820;2022-08-01T07:39:02;3.20;;;2.53;;
8871;SDS011;4472;52.092;9.820;2022-08-01T07:41:50;2.20;;;2.10;;
8871;SDS011;4472;52.092;9.820;2022-08-01T07:44:38;2.20;;;2.10;;
8871;SDS011;4472;52.092;9.820;2022-08-01T07:47:25;1.40;;;1.30;;
8871;SDS011;4472;52.092;9.820;2022-08-01T07:50:13;1.30;;;1.20;;
8871;SDS011;4472;52.092;9.820;2022-08-01T07:53:00;2.90;;;1.20;;
8871;SDS011;4472;52.092;9.820;2022-08-01T07:55:48;1.47;;;1.37;;
8871;SDS011;4472;52.092;9.820;2022-08-01T07:58:37;1.27;;;1.27;;
8871;SDS011;4472;52.092;9.820;2022-08-01T08:01:24;2.57;;;1.60;;
8871;SDS011;4472;52.092;9.820;2022-08-01T08:04:12;2.50;;;1.63;;
8871;SDS011;4472;52.092;9.820;2022-08-01T08:06:59;10.80;;;2.13;;
8871;SDS011;4472;52.092;9.820;2022-08-01T08:09:46;3.47;;;2.00;;
8871;SDS011;4472;52.092;9.820;2022-08-01T08:12:34;2.07;;;1.97;;
8871;SDS011;4472;52.092;9.820;2022-08-01T08:15:22;3.73;;;2.20;;
8871;SDS011;4472;52.092;9.820;2022-08-01T08:18:09;2.73;;;2.37;;
8871;SDS011;4472;52.092;9.820;2022-08-01T08:20:56;2.83;;;2.50;;
8871;SDS011;4472;52.092;9.820;2022-08-01T08:23:43;2.10;;;2.00;;
8871;SDS011;4472;52.092;9.820;2022-08-01T08:26:49;2.20;;;2.10;;
8871;SDS011;4472;52.092;9.820;2022-08-01T08:29:38;2.47;;;2.23;;
8871;SDS011;4472;52.092;9.820;2022-08-01T08:32:26;2.40;;;2.10;;
8871;SDS011;4472;52.092;9.820;2022-08-01T08:35:14;2.33;;;2.03;;
8871;SDS011;4472;52.092;9.820;2022-08-01T08:38:01;2.20;;;2.00;;
8871;SDS011;4472;52.092;9.820;2022-08-01T08:40:48;1.80;;;1.70;;
8871;SDS011;4472;52.092;9.820;2022-08-01T08:43:35;2.30;;;2.10;;
8871;SDS011;4472;52.092;9.820;2022-08-01T08:46:22;2.10;;;2.00;;
8871;SDS011;4472;52.092;9.820;2022-08-01T08:49:13;2.00;;;1.80;;
8871;SDS011;4472;52.092;9.820;2022-08-01T08:52:03;2.00;;;1.80;;
8871;SDS011;4472;52.092;9.820;2022-08-01T08:54:51;2.60;;;1.90;;
8871;SDS011;4472;52.092;9.820;2022-08-01T08:57:39;2.23;;;1.80;;
8871;SDS011;4472;52.092;9.820;2022-08-01T09:00:29;2.30;;;2.20;;
8871;SDS011;4472;52.092;9.820;2022-08-01T09:03:16;1.80;;;1.70;;
8871;SDS011;4472;52.092;9.820;2022-08-01T09:06:06;1.60;;;1.50;;
8871;SDS011;4472;52.092;9.820;2022-08-01T09:08:53;1.80;;;1.67;;
8871;SDS011;4472;52.092;9.820;2022-08-01T09:11:40;2.37;;;1.70;;
8871;SDS011;4472;52.092;9.820;2022-08-01T09:14:27;1.90;;;1.80;;
8871;SDS011;4472;52.092;9.820;2022-08-01T09:17:16;1.97;;;1.87;;
8871;SDS011;4472;52.092;9.820;2022-08-01T09:20:04;1.70;;;1.60;;
8871;SDS011;4472;52.092;9.820;2022-08-01T09:22:53;2.13;;;1.70;;
8871;SDS011;4472;52.092;9.820;2022-08-01T09:25:50;1.73;;;1.63;;
8871;SDS011;4472;52.092;9.820;2022-08-01T09:28:38;1.67;;;1.57;;
8871;SDS011;4472;52.092;9.820;2022-08-01T09:31:26;1.80;;;1.70;;
8871;SDS011;4472;52.092;9.820;2022-08-01T09:34:14;1.90;;;1.60;;
8871;SDS011;4472;52.092;9.820;2022-08-01T09:37:02;1.40;;;1.40;;
8871;SDS011;4472;52.092;9.820;2022-08-01T09:39:55;1.40;;;1.40;;
8871;SDS011;4472;52.092;9.820;2022-08-01T09:42:43;1.47;;;1.40;;
8871;SDS011;4472;52.092;9.820;2022-08-01T09:45:34;3.03;;;1.60;;
8871;SDS011;4472;52.092;9.820;2022-08-01T09:48:21;1.70;;;1.60;;
8871;SDS011;4472;52.092;9.820;2022-08-01T09:51:09;1.57;;;1.40;;
8871;SDS011;4472;52.092;9.820;2022-08-01T09:53:57;2.10;;;1.43;;
8871;SDS011;4472;52.092;9.820;2022-08-01T09:56:46;1.57;;;1.40;;
8871;SDS011;4472;52.092;9.820;2022-08-01T09:59:34;1.70;;;1.60;;
8871;SDS011;4472;52.092;9.820;2022-08-01T10:02:27;1.70;;;1.60;;
8871;SDS011;4472;52.092;9.820;2022-08-01T10:05:17;1.77;;;1.67;;
8871;SDS011;4472;52.092;9.820;2022-08-01T10:08:06;2.07;;;1.97;;
8871;SDS011;4472;52.092;9.820;2022-08-01T10:13:59;2.00;;;1.70;;
8871;SDS011;4472;52.092;9.820;2022-08-01T10:16:48;1.77;;;1.67;;
8871;SDS011;4472;52.092;9.820;2022-08-01T10:19:37;2.37;;;1.70;;
8871;SDS011;4472;52.092;9.820;2022-08-01T10:22:27;1.90;;;1.80;;
8871;SDS011;4472;52.092;9.820;2022-08-01T10:25:18;2.43;;;1.80;;
8871;SDS011;4472;52.092;9.820;2022-08-01T10:28:09;1.93;;;1.60;;
8871;SDS011;4472;52.092;9.820;2022-08-01T10:31:02;1.80;;;1.70;;
8871;SDS011;4472;52.092;9.820;2022-08-01T10:33:49;1.77;;;1.60;;
8871;SDS011;4472;52.092;9.820;2022-08-01T10:36:37;2.03;;;1.70;;
8871;SDS011;4472;52.092;9.820;2022-08-01T10:39:25;2.10;;;2.00;;
8871;SDS011;4472;52.092;9.820;2022-08-01T10:42:14;1.60;;;1.50;;
8871;SDS011;4472;52.092;9.820;2022-08-01T10:45:02;1.77;;;1.67;;
8871;SDS011;4472;52.092;9.820;2022-08-01T10:47:53;2.77;;;1.50;;
8871;SDS011;4472;52.092;9.820;2022-08-01T10:50:46;1.70;;;1.60;;
8871;SDS011;4472;52.092;9.820;2022-08-01T10:53:35;1.50;;;1.50;;
8871;SDS011;4472;52.092;9.820;2022-08-01T10:56:38;1.63;;;1.47;;
8871;SDS011;4472;52.092;9.820;2022-08-01T10:59:27;1.40;;;1.40;;
8871;SDS011;4472;52.092;9.820;2022-08-01T11:02:28;1.40;;;1.30;;
8871;SDS011;4472;52.092;9.820;2022-08-01T11:05:19;1.40;;;1.40;;
8871;SDS011;4472;52.092;9.820;2022-08-01T11:08:08;1.37;;;1.27;;
8871;SDS011;4472;52.092;9.820;2022-08-01T11:10:59;1.63;;;1.53;;
8871;SDS011;4472;52.092;9.820;2022-08-01T11:14:03;1.60;;;1.50;;
8871;SDS011;4472;52.092;9.820;2022-08-01T11:27:43;1.40;;;1.40;;
8871;SDS011;4472;52.092;9.820;2022-08-01T11:30:30;1.40;;;1.30;;
8871;SDS011;4472;52.092;9.820;2022-08-01T11:33:18;1.70;;;1.50;;
8871;SDS011;4472;52.092;9.820;2022-08-01T11:36:26;1.83;;;1.17;;
8871;SDS011;4472;52.092;9.820;2022-08-01T11:39:14;1.50;;;1.40;;
8871;SDS011;4472;52.092;9.820;2022-08-01T11:42:17;1.60;;;1.50;;
8871;SDS011;4472;52.092;9.820;2022-08-01T11:45:07;1.43;;;1.40;;
8871;SDS011;4472;52.092;9.820;2022-08-01T11:47:55;1.83;;;1.50;;
8871;SDS011;4472;52.092;9.820;2022-08-01T11:50:42;1.80;;;1.70;;
8871;SDS011;4472;52.092;9.820;2022-08-01T11:53:29;1.87;;;1.63;;
8871;SDS011;4472;52.092;9.820;2022-08-01T11:56:18;2.30;;;1.73;;
8871;SDS011;4472;52.092;9.820;2022-08-01T11:59:06;2.20;;;2.00;;
8871;SDS011;4472;52.092;9.820;2022-08-01T12:01:54;2.20;;;2.10;;
8871;SDS011;4472;52.092;9.820;2022-08-01T12:04:45;2.27;;;2.07;;
8871;SDS011;4472;52.092;9.820;2022-08-01T12:07:34;2.60;;;2.20;;
8871;SDS011;4472;52.092;9.820;2022-08-01T12:10:23;2.87;;;2.50;;
8871;SDS011;4472;52.092;9.820;2022-08-01T12:13:11;3.80;;;2.80;;
8871;SDS011;4472;52.092;9.820;2022-08-01T12:15:59;2.83;;;2.47;;
8871;SDS011;4472;52.092;9.820;2022-08-01T12:18:55;3.93;;;3.53;;
8871;SDS011;4472;52.092;9.820;2022-08-01T12:21:42;3.30;;;3.00;;
8871;SDS011;4472;52.092;9.820;2022-08-01T12:24:29;5.07;;;4.20;;
8871;SDS011;4472;52.092;9.820;2022-08-01T12:27:23;4.80;;;4.20;;
8871;SDS011;4472;52.092;9.820;2022-08-01T12:30:12;4.83;;;3.83;;
8871;SDS011;4472;52.092;9.820;2022-08-01T12:33:00;5.07;;;4.30;;
8871;SDS011;4472;52.092;9.820;2022-08-01T12:35:50;5.93;;;3.80;;
8871;SDS011;4472;52.092;9.820;2022-08-01T12:38:38;4.67;;;3.20;;
8871;SDS011;4472;52.092;9.820;2022-08-01T12:41:25;4.63;;;3.90;;
8871;SDS011;4472;52.092;9.820;2022-08-01T12:44:12;6.10;;;3.83;;
8871;SDS011;4472;52.092;9.820;2022-08-01T12:47:02;3.30;;;3.00;;
8871;SDS011;4472;52.092;9.820;2022-08-01T12:49:50;3.63;;;2.70;;
8871;SDS011;4472;52.092;9.820;2022-08-01T12:52:39;3.63;;;3.00;;
8871;SDS011;4472;52.092;9.820;2022-08-01T12:55:27;5.27;;;3.50;;
8871;SDS011;4472;52.092;9.820;2022-08-01T12:58:14;4.70;;;3.27;;
8871;SDS011;4472;52.092;9.820;2022-08-01T13:01:04;4.83;;;3.23;;
8871;SDS011;4472;52.092;9.820;2022-08-01T13:03:59;3.80;;;2.93;;
8871;SDS011;4472;52.092;9.820;2022-08-01T13:06:52;3.70;;;2.90;;
8871;SDS011;4472;52.092;9.820;2022-08-01T13:09:49;5.67;;;3.23;;
8871;SDS011;4472;52.092;9.820;2022-08-01T13:12:37;3.40;;;2.93;;
8871;SDS011;4472;52.092;9.820;2022-08-01T13:15:26;4.07;;;3.13;;
8871;SDS011;4472;52.092;9.820;2022-08-01T13:18:23;6.40;;;3.50;;
8871;SDS011;4472;52.092;9.820;2022-08-01T13:21:13;6.43;;;3.03;;
8871;SDS011;4472;52.092;9.820;2022-08-01T13:24:02;5.33;;;3.70;;
8871;SDS011;4472;52.092;9.820;2022-08-01T13:26:54;3.30;;;3.00;;
8871;SDS011;4472;52.092;9.820;2022-08-01T13:29:44;5.57;;;3.30;;
8871;SDS011;4472;52.092;9.820;2022-08-01T13:32:35;5.27;;;3.23;;
8871;SDS011;4472;52.092;9.820;2022-08-01T13:35:22;4.10;;;3.63;;
8871;SDS011;4472;52.092;9.820;2022-08-01T13:38:09;5.37;;;3.70;;
8871;SDS011;4472;52.092;9.820;2022-08-01T13:40:57;5.67;;;3.40;;
8871;SDS011;4472;52.092;9.820;2022-08-01T13:43:46;4.00;;;3.00;;
8871;SDS011;4472;52.092;9.820;2022-08-01T13:46:33;4.47;;;3.07;;
8871;SDS011;4472;52.092;9.820;2022-08-01T13:49:21;3.87;;;3.40;;
8871;SDS011;4472;52.092;9.820;2022-08-01T13:52:08;3.23;;;2.80;;
8871;SDS011;4472;52.092;9.820;2022-08-01T13:54:55;3.93;;;3.10;;
8871;SDS011;4472;52.092;9.820;2022-08-01T13:57:42;4.03;;;3.47;;
8871;SDS011;4472;52.092;9.820;2022-08-01T14:00:31;4.93;;;3.07;;
8871;SDS011;4472;52.092;9.820;2022-08-01T14:03:18;4.80;;;3.30;;
8871;SDS011;4472;52.092;9.820;2022-08-01T14:06:05;7.90;;;3.00;;
8871;SDS011;4472;52.092;9.820;2022-08-01T14:08:53;3.00;;;2.63;;
8871;SDS011;4472;52.092;9.820;2022-08-01T14:11:40;4.63;;;3.07;;
8871;SDS011;4472;52.092;9.820;2022-08-01T14:14:27;4.80;;;2.87;;
8871;SDS011;4472;52.092;9.820;2022-08-01T14:17:16;4.23;;;2.77;;
8871;SDS011;4472;52.092;9.820;2022-08-01T14:20:04;5.57;;;3.40;;
8871;SDS011;4472;52.092;9.820;2022-08-01T14:22:52;4.33;;;3.00;;
8871;SDS011;4472;52.092;9.820;2022-08-01T14:25:40;4.57;;;2.77;;
8871;SDS011;4472;52.092;9.820;2022-08-01T14:28:27;5.63;;;3.00;;
8871;SDS011;4472;52.092;9.820;2022-08-01T14:31:15;3.53;;;2.80;;
8871;SDS011;4472;52.092;9.820;2022-08-01T14:34:04;3.37;;;2.70;;
8871;SDS011;4472;52.092;9.820;2022-08-01T14:36:51;7.03;;;3.20;;
8871;SDS011;4472;52.092;9.820;2022-08-01T14:39:39;4.13;;;3.10;;
8871;SDS011;4472;52.092;9.820;2022-08-01T14:42:27;6.37;;;3.63;;
8871;SDS011;4472;52.092;9.820;2022-08-01T14:45:14;5.07;;;3.00;;
8871;SDS011;4472;52.092;9.820;2022-08-01T14:48:01;3.83;;;2.93;;
8871;SDS011;4472;52.092;9.820;2022-08-01T14:50:49;4.43;;;3.23;;
8871;SDS011;4472;52.092;9.820;2022-08-01T14:53:37;7.33;;;3.07;;
8871;SDS011;4472;52.092;9.820;2022-08-01T14:56:24;4.97;;;3.20;;
8871;SDS011;4472;52.092;9.820;2022-08-01T14:59:12;5.90;;;3.50;;
8871;SDS011;4472;52.092;9.820;2022-08-01T15:01:59;5.00;;;3.30;;
8871;SDS011;4472;52.092;9.820;2022-08-01T15:04:46;5.40;;;3.60;;
8871;SDS011;4472;52.092;9.820;2022-08-01T15:07:35;5.27;;;3.30;;
8871;SDS011;4472;52.092;9.820;2022-08-01T15:10:23;4.87;;;3.50;;
8871;SDS011;4472;52.092;9.820;2022-08-01T15:13:10;9.47;;;3.73;;
8871;SDS011;4472;52.092;9.820;2022-08-01T15:15:57;6.43;;;4.00;;
8871;SDS011;4472;52.092;9.820;2022-08-01T15:18:44;4.80;;;3.40;;
8871;SDS011;4472;52.092;9.820;2022-08-01T15:21:32;7.60;;;3.93;;
8871;SDS011;4472;52.092;9.820;2022-08-01T15:24:20;6.80;;;4.10;;
8871;SDS011;4472;52.092;9.820;2022-08-01T15:27:08;6.13;;;3.70;;
8871;SDS011;4472;52.092;9.820;2022-08-01T15:29:56;5.10;;;3.77;;
8871;SDS011;4472;52.092;9.820;2022-08-01T15:32:43;5.10;;;3.47;;
8871;SDS011;4472;52.092;9.820;2022-08-01T15:35:32;6.47;;;3.90;;
8871;SDS011;4472;52.092;9.820;2022-08-01T15:38:20;6.03;;;4.23;;
8871;SDS011;4472;52.092;9.820;2022-08-01T15:41:09;5.70;;;3.70;;
8871;SDS011;4472;52.092;9.820;2022-08-01T15:43:56;4.20;;;3.80;;
8871;SDS011;4472;52.092;9.820;2022-08-01T15:46:43;6.67;;;4.20;;
8871;SDS011;4472;52.092;9.820;2022-08-01T15:49:30;5.70;;;3.93;;
8871;SDS011;4472;52.092;9.820;2022-08-01T15:52:18;4.67;;;3.87;;
8871;SDS011;4472;52.092;9.820;2022-08-01T15:55:05;6.80;;;4.03;;
8871;SDS011;4472;52.092;9.820;2022-08-01T15:57:55;7.40;;;4.30;;
8871;SDS011;4472;52.092;9.820;2022-08-01T16:00:42;4.00;;;3.60;;
8871;SDS011;4472;52.092;9.820;2022-08-01T16:03:29;6.93;;;4.17;;
8871;SDS011;4472;52.092;9.820;2022-08-01T16:06:16;5.73;;;4.23;;
8871;SDS011;4472;52.092;9.820;2022-08-01T16:09:04;6.53;;;4.13;;
8871;SDS011;4472;52.092;9.820;2022-08-01T16:11:52;6.10;;;3.83;;
8871;SDS011;4472;52.092;9.820;2022-08-01T16:14:40;3.97;;;3.37;;
8871;SDS011;4472;52.092;9.820;2022-08-01T16:17:28;5.43;;;3.87;;
8871;SDS011;4472;52.092;9.820;2022-08-01T16:20:15;6.23;;;3.50;;
8871;SDS011;4472;52.092;9.820;2022-08-01T16:23:02;7.07;;;3.77;;
8871;SDS011;4472;52.092;9.820;2022-08-01T16:25:49;7.67;;;3.80;;
8871;SDS011;4472;52.092;9.820;2022-08-01T16:28:37;7.63;;;3.50;;
8871;SDS011;4472;52.092;9.820;2022-08-01T16:31:26;7.00;;;3.97;;
8871;SDS011;4472;52.092;9.820;2022-08-01T16:34:14;7.97;;;3.80;;
8871;SDS011;4472;52.092;9.820;2022-08-01T16:37:01;7.70;;;3.57;;
8871;SDS011;4472;52.092;9.820;2022-08-01T16:39:48;6.03;;;3.57;;
8871;SDS011;4472;52.092;9.820;2022-08-01T16:42:35;5.03;;;3.60;;
8871;SDS011;4472;52.092;9.820;2022-08-01T16:45:22;6.40;;;3.87;;
8871;SDS011;4472;52.092;9.820;2022-08-01T16:48:11;7.00;;;3.97;;
8871;SDS011;4472;52.092;9.820;2022-08-01T16:51:00;5.00;;;3.80;;
8871;SDS011;4472;52.092;9.820;2022-08-01T16:53:47;8.30;;;3.57;;
8871;SDS011;4472;52.092;9.820;2022-08-01T16:56:34;6.50;;;3.73;;
8871;SDS011;4472;52.092;9.820;2022-08-01T16:59:21;9.50;;;3.93;;
8871;SDS011;4472;52.092;9.820;2022-08-01T17:02:08;8.07;;;3.50;;
8871;SDS011;4472;52.092;9.820;2022-08-01T17:04:57;5.77;;;3.43;;
8871;SDS011;4472;52.092;9.820;2022-08-01T17:07:44;6.30;;;3.33;;
8871;SDS011;4472;52.092;9.820;2022-08-01T17:10:31;7.67;;;3.10;;
8871;SDS011;4472;52.092;9.820;2022-08-01T17:13:19;5.80;;;2.83;;
8871;SDS011;4472;52.092;9.820;2022-08-01T17:16:07;4.60;;;2.90;;
8871;SDS011;4472;52.092;9.820;2022-08-01T17:18:55;6.77;;;3.17;;
8871;SDS011;4472;52.092;9.820;2022-08-01T17:21:44;7.97;;;2.80;;
8871;SDS011;4472;52.092;9.820;2022-08-01T17:24:31;7.10;;;2.77;;
8871;SDS011;4472;52.092;9.820;2022-08-01T17:27:18;7.27;;;2.60;;
8871;SDS011;4472;52.092;9.820;2022-08-01T17:30:06;7.90;;;2.70;;
8871;SDS011;4472;52.092;9.820;2022-08-01T17:32:53;9.53;;;2.83;;
8871;SDS011;4472;52.092;9.820;2022-08-01T17:35:40;8.43;;;2.80;;
8871;SDS011;4472;52.092;9.820;2022-08-01T17:38:29;9.83;;;2.70;;
8871;SDS011;4472;52.092;9.820;2022-08-01T17:41:16;6.00;;;2.50;;
8871;SDS011;4472;52.092;9.820;2022-08-01T17:44:03;8.60;;;2.80;;